sensor_id;sensor_type;location;lat;lon;timestamp;pressure;altitude;pressure_sealevel;temperature;humidity
73516;BME280;61763;51.416;5.442;2023-11-18T00:00:51;102330.78;;;2.82;100.00
73516;BME280;61763;51.416;5.442;2023-11-18T00:03:17;102335.19;;;2.79;100.00
73516;BME280;61763;51.416;5.442;2023-11-18T00:05:44;102327.16;;;2.75;100.00
73516;BME280;61763;51.416;5.442;2023-11-18T00:08:09;102320.94;;;2.70;100.00
73516;BME280;61763;51.416;5.442;2023-11-18T00:10:36;102328.00;;;2.68;100.00
73516;BME280;61763;51.416;5.442;2023-11-18T00:13:03;102332.44;;;2.64;100.00
73516;BME280;61763;51.416;5.442;2023-11-18T00:15:29;102333.38;;;2.74;100.00
73516;BME280;61763;51.416;5.442;2023-11-18T00:17:55;102330.69;;;2.69;100.00
73516;BME280;61763;51.416;5.442;2023-11-18T00:20:20;102333.31;;;2.63;100.00
73516;BME280;61763;51.416;5.442;2023-11-18T00:22:45;102328.91;;;2.63;100.00
73516;BME280;61763;51.416;5.442;2023-11-18T00:25:11;102323.56;;;2.63;100.00
73516;BME280;61763;51.416;5.442;2023-11-18T00:27:39;102322.66;;;2.65;100.00
73516;BME280;61763;51.416;5.442;2023-11-18T00:30:06;102329.75;;;2.59;100.00
73516;BME280;61763;51.416;5.442;2023-11-18T00:32:38;102328.81;;;2.54;100.00
73516;BME280;61763;51.416;5.442;2023-11-18T00:35:04;102326.13;;;2.50;100.00
73516;BME280;61763;51.416;5.442;2023-11-18T00:37:30;102322.59;;;2.52;100.00
73516;BME280;61763;51.416;5.442;2023-11-18T00:39:56;102320.78;;;2.50;100.00
73516;BME280;61763;51.416;5.442;2023-11-18T00:42:21;102319.09;;;2.58;100.00
73516;BME280;61763;51.416;5.442;2023-11-18T00:44:46;102319.06;;;2.56;100.00
73516;BME280;61763;51.416;5.442;2023-11-18T00:47:12;102317.25;;;2.49;100.00
73516;BME280;61763;51.416;5.442;2023-11-18T00:49:38;102305.63;;;2.38;100.00
73516;BME280;61763;51.416;5.442;2023-11-18T00:52:03;102312.66;;;2.31;100.00
73516;BME280;61763;51.416;5.442;2023-11-18T00:54:29;102315.28;;;2.23;100.00
73516;BME280;61763;51.416;5.442;2023-11-18T00:56:55;102316.09;;;2.15;100.00
73516;BME280;61763;51.416;5.442;2023-11-18T00:59:22;102310.72;;;2.08;100.00
73516;BME280;61763;51.416;5.442;2023-11-18T01:01:47;102316.91;;;2.06;100.00
73516;BME280;61763;51.416;5.442;2023-11-18T01:04:14;102314.22;;;2.03;100.00
73516;BME280;61763;51.416;5.442;2023-11-18T01:06:39;102325.72;;;1.99;100.00
73516;BME280;61763;51.416;5.442;2023-11-18T01:09:05;102321.25;;;1.93;100.00
73516;BME280;61763;51.416;5.442;2023-11-18T01:11:32;102328.34;;;1.96;100.00
73516;BME280;61763;51.416;5.442;2023-11-18T01:13:57;102329.25;;;1.95;100.00
73516;BME280;61763;51.416;5.442;2023-11-18T01:16:23;102328.31;;;1.92;100.00
73516;BME280;61763;51.416;5.442;2023-11-18T01:18:49;102328.31;;;1.91;100.00
73516;BME280;61763;51.416;5.442;2023-11-18T01:21:15;102324.84;;;2.00;100.00
73516;BME280;61763;51.416;5.442;2023-11-18T01:23:42;102322.25;;;2.09;100.00
73516;BME280;61763;51.416;5.442;2023-11-18T01:26:08;102330.34;;;2.18;100.00
73516;BME280;61763;51.416;5.442;2023-11-18T01:28:36;102338.44;;;2.35;100.00
73516;BME280;61763;51.416;5.442;2023-11-18T01:31:05;102333.19;;;2.43;100.00
73516;BME280;61763;51.416;5.442;2023-11-18T01:33:38;102334.16;;;2.54;100.00
73516;BME280;61763;51.416;5.442;2023-11-18T01:36:08;102337.78;;;2.62;100.00
73516;BME280;61763;51.416;5.442;2023-11-18T01:38:34;102337.81;;;2.69;100.00
73516;BME280;61763;51.416;5.442;2023-11-18T01:41:00;102341.38;;;2.74;100.00
73516;BME280;61763;51.416;5.442;2023-11-18T01:43:26;102336.97;;;2.77;100.00
73516;BME280;61763;51.416;5.442;2023-11-18T01:45:52;102340.53;;;2.81;100.00
73516;BME280;61763;51.416;5.442;2023-11-18T01:48:19;102328.13;;;2.83;100.00
73516;BME280;61763;51.416;5.442;2023-11-18T01:50:48;102325.47;;;2.88;100.00
73516;BME280;61763;51.416;5.442;2023-11-18T01:53:13;102324.63;;;2.93;100.00
73516;BME280;61763;51.416;5.442;2023-11-18T01:55:40;102329.09;;;2.96;100.00
73516;BME280;61763;51.416;5.442;2023-11-18T01:58:06;102324.63;;;3.00;100.00
73516;BME280;61763;51.416;5.442;2023-11-18T02:00:36;102330.00;;;3.06;100.00
73516;BME280;61763;51.416;5.442;2023-11-18T02:03:04;102329.13;;;3.10;100.00
73516;BME280;61763;51.416;5.442;2023-11-18T02:05:31;102329.16;;;3.19;100.00
73516;BME280;61763;51.416;5.442;2023-11-18T02:08:00;102328.28;;;3.23;100.00
73516;BME280;61763;51.416;5.442;2023-11-18T02:10:26;102320.31;;;3.31;100.00
73516;BME280;61763;51.416;5.442;2023-11-18T02:12:59;102323.00;;;3.34;100.00
73516;BME280;61763;51.416;5.442;2023-11-18T02:15:28;102320.31;;;3.36;100.00
73516;BME280;61763;51.416;5.442;2023-11-18T02:17:57;102321.25;;;3.36;100.00
73516;BME280;61763;51.416;5.442;2023-11-18T02:20:22;102321.25;;;3.41;100.00
73516;BME280;61763;51.416;5.442;2023-11-18T02:22:49;102326.56;;;3.39;100.00
73516;BME280;61763;51.416;5.442;2023-11-18T02:25:16;102322.13;;;3.43;100.00
73516;BME280;61763;51.416;5.442;2023-11-18T02:27:43;102325.72;;;3.45;100.00
73516;BME280;61763;51.416;5.442;2023-11-18T02:30:10;102326.59;;;3.44;100.00
73516;BME280;61763;51.416;5.442;2023-11-18T02:32:48;102328.38;;;3.42;100.00
73516;BME280;61763;51.416;5.442;2023-11-18T02:35:37;102347.06;;;3.39;100.00
73516;BME280;61763;51.416;5.442;2023-11-18T02:38:04;102336.34;;;3.37;100.00
73516;BME280;61763;51.416;5.442;2023-11-18T02:40:37;102334.59;;;3.36;100.00
73516;BME280;61763;51.416;5.442;2023-11-18T02:43:05;102323.91;;;3.36;100.00
73516;BME280;61763;51.416;5.442;2023-11-18T02:45:31;102317.69;;;3.39;100.00
73516;BME280;61763;51.416;5.442;2023-11-18T02:47:58;102329.25;;;3.38;100.00
73516;BME280;61763;51.416;5.442;2023-11-18T02:50:24;102324.78;;;3.40;100.00
73516;BME280;61763;51.416;5.442;2023-11-18T02:52:50;102322.13;;;3.35;100.00
73516;BME280;61763;51.416;5.442;2023-11-18T02:55:15;102310.56;;;3.33;100.00
73516;BME280;61763;51.416;5.442;2023-11-18T02:57:40;102304.28;;;3.28;100.00
73516;BME280;61763;51.416;5.442;2023-11-18T03:00:08;102303.41;;;3.26;100.00
73516;BME280;61763;51.416;5.442;2023-11-18T03:02:44;102300.75;;;3.27;100.00
73516;BME280;61763;51.416;5.442;2023-11-18T03:05:11;102294.50;;;3.22;100.00
73516;BME280;61763;51.416;5.442;2023-11-18T03:07:41;102289.13;;;3.14;100.00
73516;BME280;61763;51.416;5.442;2023-11-18T03:10:07;102290.00;;;3.09;100.00
73516;BME280;61763;51.416;5.442;2023-11-18T03:12:38;102282.84;;;3.03;100.00
73516;BME280;61763;51.416;5.442;2023-11-18T03:15:05;102279.28;;;2.98;100.00
73516;BME280;61763;51.416;5.442;2023-11-18T03:17:32;102280.19;;;2.98;100.00
73516;BME280;61763;51.416;5.442;2023-11-18T03:19:57;102275.78;;;3.05;100.00
73516;BME280;61763;51.416;5.442;2023-11-18T03:22:22;102279.34;;;3.12;100.00
73516;BME280;61763;51.416;5.442;2023-11-18T03:24:49;102274.91;;;3.15;100.00
73516;BME280;61763;51.416;5.442;2023-11-18T03:27:14;102277.59;;;3.20;100.00
73516;BME280;61763;51.416;5.442;2023-11-18T03:29:41;102292.72;;;3.18;100.00
73516;BME280;61763;51.416;5.442;2023-11-18T03:32:08;102285.59;;;3.19;100.00
73516;BME280;61763;51.416;5.442;2023-11-18T03:34:34;102275.78;;;3.16;100.00
73516;BME280;61763;51.416;5.442;2023-11-18T03:37:00;102274.03;;;3.17;100.00
73516;BME280;61763;51.416;5.442;2023-11-18T03:39:26;102267.78;;;3.14;100.00
73516;BME280;61763;51.416;5.442;2023-11-18T03:41:52;102260.69;;;3.17;100.00
73516;BME280;61763;51.416;5.442;2023-11-18T03:44:17;102265.16;;;3.24;100.00
73516;BME280;61763;51.416;5.442;2023-11-18T03:46:43;102250.94;;;3.34;100.00
73516;BME280;61763;51.416;5.442;2023-11-18T03:49:09;102250.97;;;3.42;100.00
73516;BME280;61763;51.416;5.442;2023-11-18T03:51:35;102255.44;;;3.58;100.00
73516;BME280;61763;51.416;5.442;2023-11-18T03:54:00;102241.19;;;3.48;100.00
73516;BME280;61763;51.416;5.442;2023-11-18T03:56:26;102242.06;;;3.43;100.00
73516;BME280;61763;51.416;5.442;2023-11-18T03:58:52;102240.31;;;3.43;100.00
73516;BME280;61763;51.416;5.442;2023-11-18T04:01:24;102234.06;;;3.44;100.00
73516;BME280;61763;51.416;5.442;2023-11-18T04:03:52;102230.50;;;3.47;100.00
73516;BME280;61763;51.416;5.442;2023-11-18T04:06:19;102223.38;;;3.44;100.00
73516;BME280;61763;51.416;5.442;2023-11-18T04:08:46;102226.97;;;3.43;100.00
73516;BME280;61763;51.416;5.442;2023-11-18T04:11:13;102205.59;;;3.45;100.00
73516;BME280;61763;51.416;5.442;2023-11-18T04:13:42;102211.84;;;3.59;100.00
73516;BME280;61763;51.416;5.442;2023-11-18T04:16:14;102210.94;;;3.60;100.00
73516;BME280;61763;51.416;5.442;2023-11-18T04:18:40;102214.53;;;3.62;100.00
73516;BME280;61763;51.416;5.442;2023-11-18T04:21:08;102211.84;;;3.62;100.00
73516;BME280;61763;51.416;5.442;2023-11-18T04:23:36;102214.53;;;3.68;100.00
73516;BME280;61763;51.416;5.442;2023-11-18T04:26:03;102208.25;;;3.68;100.00
73516;BME280;61763;51.416;5.442;2023-11-18T04:28:29;102209.19;;;3.70;100.00
73516;BME280;61763;51.416;5.442;2023-11-18T04:30:55;102205.63;;;3.73;100.00
73516;BME280;61763;51.416;5.442;2023-11-18T04:33:20;102205.63;;;3.74;100.00
73516;BME280;61763;51.416;5.442;2023-11-18T04:35:46;102203.81;;;3.78;100.00
73516;BME280;61763;51.416;5.442;2023-11-18T04:38:12;102202.94;;;3.79;100.00
73516;BME280;61763;51.416;5.442;2023-11-18T04:40:38;102197.59;;;3.82;100.00
73516;BME280;61763;51.416;5.442;2023-11-18T04:43:06;102201.16;;;3.82;100.00
73516;BME280;61763;51.416;5.442;2023-11-18T04:45:31;102193.13;;;3.84;100.00
73516;BME280;61763;51.416;5.442;2023-11-18T04:47:56;102190.47;;;3.87;100.00
73516;BME280;61763;51.416;5.442;2023-11-18T04:50:22;102184.22;;;3.90;100.00
73516;BME280;61763;51.416;5.442;2023-11-18T04:52:47;102182.47;;;3.90;100.00
73516;BME280;61763;51.416;5.442;2023-11-18T04:55:13;102175.34;;;3.92;100.00
73516;BME280;61763;51.416;5.442;2023-11-18T04:57:39;102175.34;;;3.91;100.00
73516;BME280;61763;51.416;5.442;2023-11-18T05:00:05;102176.22;;;3.91;100.00
73516;BME280;61763;51.416;5.442;2023-11-18T05:02:37;102175.34;;;3.94;100.00
73516;BME280;61763;51.416;5.442;2023-11-18T05:05:02;102168.19;;;4.00;100.00
73516;BME280;61763;51.416;5.442;2023-11-18T05:07:31;102161.06;;;3.99;100.00
73516;BME280;61763;51.416;5.442;2023-11-18T05:09:56;102167.28;;;4.03;100.00
73516;BME280;61763;51.416;5.442;2023-11-18T05:12:22;102154.84;;;4.02;100.00
73516;BME280;61763;51.416;5.442;2023-11-18T05:14:47;102150.38;;;4.01;100.00
73516;BME280;61763;51.416;5.442;2023-11-18T05:17:15;102137.91;;;4.04;100.00
73516;BME280;61763;51.416;5.442;2023-11-18T05:19:41;102141.47;;;4.10;100.00
73516;BME280;61763;51.416;5.442;2023-11-18T05:22:08;102136.13;;;4.13;100.00
73516;BME280;61763;51.416;5.442;2023-11-18T05:24:34;102138.81;;;4.08;100.00
73516;BME280;61763;51.416;5.442;2023-11-18T05:26:59;102129.88;;;4.09;100.00
73516;BME280;61763;51.416;5.442;2023-11-18T05:29:28;102124.53;;;4.12;100.00
73516;BME280;61763;51.416;5.442;2023-11-18T05:31:54;102134.31;;;4.13;100.00
73516;BME280;61763;51.416;5.442;2023-11-18T05:34:20;102134.28;;;4.21;100.00
73516;BME280;61763;51.416;5.442;2023-11-18T05:36:47;102131.63;;;4.18;100.00
73516;BME280;61763;51.416;5.442;2023-11-18T05:39:13;102131.63;;;4.18;100.00
73516;BME280;61763;51.416;5.442;2023-11-18T05:41:40;102127.19;;;4.17;100.00
73516;BME280;61763;51.416;5.442;2023-11-18T05:44:10;102122.72;;;4.19;100.00
73516;BME280;61763;51.416;5.442;2023-11-18T05:46:42;102121.84;;;4.17;100.00
73516;BME280;61763;51.416;5.442;2023-11-18T05:49:11;102120.03;;;4.22;100.00
73516;BME280;61763;51.416;5.442;2023-11-18T05:51:39;102116.47;;;4.26;100.00
73516;BME280;61763;51.416;5.442;2023-11-18T05:54:06;102122.69;;;4.28;100.00
73516;BME280;61763;51.416;5.442;2023-11-18T05:56:32;102116.47;;;4.26;100.00
73516;BME280;61763;51.416;5.442;2023-11-18T05:58:58;102109.31;;;4.27;100.00
73516;BME280;61763;51.416;5.442;2023-11-18T06:01:23;102109.31;;;4.30;100.00
73516;BME280;61763;51.416;5.442;2023-11-18T06:03:52;102108.44;;;4.31;100.00
73516;BME280;61763;51.416;5.442;2023-11-18T06:06:18;102098.63;;;4.31;100.00
73516;BME280;61763;51.416;5.442;2023-11-18T06:08:45;102095.94;;;4.36;100.00
73516;BME280;61763;51.416;5.442;2023-11-18T06:11:12;102089.69;;;4.34;100.00
73516;BME280;61763;51.416;5.442;2023-11-18T06:13:42;102071.00;;;4.34;100.00
73516;BME280;61763;51.416;5.442;2023-11-18T06:16:14;102060.28;;;4.37;100.00
73516;BME280;61763;51.416;5.442;2023-11-18T06:18:43;102080.81;;;4.35;100.00
73516;BME280;61763;51.416;5.442;2023-11-18T06:21:23;102092.38;;;4.34;100.00
73516;BME280;61763;51.416;5.442;2023-11-18T06:23:56;102093.28;;;4.30;100.00
73516;BME280;61763;51.416;5.442;2023-11-18T06:26:23;102105.75;;;4.31;100.00
73516;BME280;61763;51.416;5.442;2023-11-18T06:28:53;102096.84;;;4.33;100.00
73516;BME280;61763;51.416;5.442;2023-11-18T06:31:22;102095.00;;;4.40;100.00
73516;BME280;61763;51.416;5.442;2023-11-18T06:33:49;102085.25;;;4.34;100.00
73516;BME280;61763;51.416;5.442;2023-11-18T06:38:44;102087.00;;;4.38;100.00
73516;BME280;61763;51.416;5.442;2023-11-18T06:41:12;102088.81;;;4.36;100.00
73516;BME280;61763;51.416;5.442;2023-11-18T06:43:40;102090.59;;;4.39;100.00
73516;BME280;61763;51.416;5.442;2023-11-18T06:46:30;102082.56;;;4.41;100.00
73516;BME280;61763;51.416;5.442;2023-11-18T06:49:00;102080.78;;;4.39;100.00
73516;BME280;61763;51.416;5.442;2023-11-18T06:51:30;102082.56;;;4.39;100.00
73516;BME280;61763;51.416;5.442;2023-11-18T06:53:57;102080.75;;;4.41;100.00
73516;BME280;61763;51.416;5.442;2023-11-18T06:56:27;102078.09;;;4.39;100.00
73516;BME280;61763;51.416;5.442;2023-11-18T06:58:53;102074.53;;;4.42;100.00
73516;BME280;61763;51.416;5.442;2023-11-18T07:01:19;102074.53;;;4.44;100.00
73516;BME280;61763;51.416;5.442;2023-11-18T07:03:46;102069.13;;;4.53;100.00
73516;BME280;61763;51.416;5.442;2023-11-18T07:06:17;102068.19;;;4.60;100.00
73516;BME280;61763;51.416;5.442;2023-11-18T07:08:48;102075.38;;;4.55;100.00
73516;BME280;61763;51.416;5.442;2023-11-18T07:11:17;102075.38;;;4.55;100.00
73516;BME280;61763;51.416;5.442;2023-11-18T07:13:47;102066.44;;;4.54;100.00
73516;BME280;61763;51.416;5.442;2023-11-18T07:16:13;102065.56;;;4.52;100.00
73516;BME280;61763;51.416;5.442;2023-11-18T07:18:40;102071.75;;;4.57;100.00
73516;BME280;61763;51.416;5.442;2023-11-18T07:21:07;102065.53;;;4.55;100.00
73516;BME280;61763;51.416;5.442;2023-11-18T07:23:34;102068.22;;;4.55;100.00
73516;BME280;61763;51.416;5.442;2023-11-18T07:26:00;102069.09;;;4.56;100.00
73516;BME280;61763;51.416;5.442;2023-11-18T07:28:26;102061.97;;;4.60;100.00
73516;BME280;61763;51.416;5.442;2023-11-18T07:30:53;102069.97;;;4.61;100.00
73516;BME280;61763;51.416;5.442;2023-11-18T07:33:19;102069.06;;;4.59;100.00
73516;BME280;61763;51.416;5.442;2023-11-18T07:35:46;102074.41;;;4.59;100.00
73516;BME280;61763;51.416;5.442;2023-11-18T07:38:12;102069.94;;;4.64;100.00
73516;BME280;61763;51.416;5.442;2023-11-18T07:40:38;102064.59;;;4.67;100.00
73516;BME280;61763;51.416;5.442;2023-11-18T07:43:20;102071.72;;;4.68;100.00
73516;BME280;61763;51.416;5.442;2023-11-18T07:45:47;102074.34;;;4.74;100.00
73516;BME280;61763;51.416;5.442;2023-11-18T07:48:14;102076.13;;;4.77;100.00
73516;BME280;61763;51.416;5.442;2023-11-18T07:50:43;102082.31;;;4.81;100.00
73516;BME280;61763;51.416;5.442;2023-11-18T07:53:10;102083.19;;;4.83;100.00
73516;BME280;61763;51.416;5.442;2023-11-18T07:55:36;102077.84;;;4.83;100.00
73516;BME280;61763;51.416;5.442;2023-11-18T07:58:09;102076.88;;;4.91;100.00
73516;BME280;61763;51.416;5.442;2023-11-18T08:00:41;102067.06;;;4.95;100.00
73516;BME280;61763;51.416;5.442;2023-11-18T08:03:14;102075.97;;;4.94;100.00
73516;BME280;61763;51.416;5.442;2023-11-18T08:05:40;102069.72;;;5.00;100.00
73516;BME280;61763;51.416;5.442;2023-11-18T08:08:09;102067.91;;;5.02;100.00
73516;BME280;61763;51.416;5.442;2023-11-18T08:10:36;102069.66;;;5.04;100.00
73516;BME280;61763;51.416;5.442;2023-11-18T08:13:04;102077.66;;;5.07;100.00
73516;BME280;61763;51.416;5.442;2023-11-18T08:15:29;102078.56;;;5.05;100.00
73516;BME280;61763;51.416;5.442;2023-11-18T08:17:56;102074.06;;;5.13;100.00
73516;BME280;61763;51.416;5.442;2023-11-18T08:20:22;102074.00;;;5.19;100.00
73516;BME280;61763;51.416;5.442;2023-11-18T08:22:50;102067.78;;;5.17;100.00
73516;BME280;61763;51.416;5.442;2023-11-18T08:25:15;102063.25;;;5.29;100.00
73516;BME280;61763;51.416;5.442;2023-11-18T08:27:43;102066.81;;;5.26;100.00
73516;BME280;61763;51.416;5.442;2023-11-18T08:30:12;102062.38;;;5.25;100.00
73516;BME280;61763;51.416;5.442;2023-11-18T08:32:39;102059.63;;;5.30;100.00
73516;BME280;61763;51.416;5.442;2023-11-18T08:35:08;102059.59;;;5.33;100.00
73516;BME280;61763;51.416;5.442;2023-11-18T08:37:38;102050.53;;;5.48;100.00
73516;BME280;61763;51.416;5.442;2023-11-18T08:40:04;102047.03;;;5.44;100.00
73516;BME280;61763;51.416;5.442;2023-11-18T08:42:32;102048.84;;;5.40;100.00
73516;BME280;61763;51.416;5.442;2023-11-18T08:44:59;102047.88;;;5.48;100.00
73516;BME280;61763;51.416;5.442;2023-11-18T08:47:26;102047.97;;;5.37;100.00
73516;BME280;61763;51.416;5.442;2023-11-18T08:49:51;102048.88;;;5.36;100.00
73516;BME280;61763;51.416;5.442;2023-11-18T08:52:16;102043.50;;;5.37;100.00
73516;BME280;61763;51.416;5.442;2023-11-18T08:54:43;102039.97;;;5.35;100.00
73516;BME280;61763;51.416;5.442;2023-11-18T08:57:28;102016.75;;;5.36;100.00
73516;BME280;61763;51.416;5.442;2023-11-18T09:00:16;102022.09;;;5.40;100.00
73516;BME280;61763;51.416;5.442;2023-11-18T09:03:01;102018.47;;;5.41;100.00
73516;BME280;61763;51.416;5.442;2023-11-18T09:05:27;102010.38;;;5.48;100.00
73516;BME280;61763;51.416;5.442;2023-11-18T09:07:57;102004.22;;;5.41;100.00
73516;BME280;61763;51.416;5.442;2023-11-18T09:10:23;102022.00;;;5.48;100.00
73516;BME280;61763;51.416;5.442;2023-11-18T09:12:49;102027.34;;;5.50;100.00
73516;BME280;61763;51.416;5.442;2023-11-18T09:15:14;102007.63;;;5.57;100.00
73516;BME280;61763;51.416;5.442;2023-11-18T09:17:50;102006.69;;;5.63;100.00
73516;BME280;61763;51.416;5.442;2023-11-18T09:20:15;101998.59;;;5.66;100.00
73516;BME280;61763;51.416;5.442;2023-11-18T09:22:48;101990.56;;;5.67;100.00
73516;BME280;61763;51.416;5.442;2023-11-18T09:25:14;101989.63;;;5.71;100.00
73516;BME280;61763;51.416;5.442;2023-11-18T09:27:41;101980.66;;;5.72;100.00
73516;BME280;61763;51.416;5.442;2023-11-18T09:30:07;101986.78;;;5.84;100.00
73516;BME280;61763;51.416;5.442;2023-11-18T09:32:42;101979.56;;;5.87;100.00
73516;BME280;61763;51.416;5.442;2023-11-18T09:35:11;101961.66;;;5.92;100.00
73516;BME280;61763;51.416;5.442;2023-11-18T09:37:39;101973.22;;;5.94;100.00
73516;BME280;61763;51.416;5.442;2023-11-18T09:40:11;101957.09;;;6.02;100.00
73516;BME280;61763;51.416;5.442;2023-11-18T09:42:38;101944.47;;;6.10;100.00
73516;BME280;61763;51.416;5.442;2023-11-18T09:45:05;101933.63;;;6.18;100.00
73516;BME280;61763;51.416;5.442;2023-11-18T09:47:36;101935.47;;;6.16;100.00
73516;BME280;61763;51.416;5.442;2023-11-18T09:50:08;101934.47;;;6.23;100.00
73516;BME280;61763;51.416;5.442;2023-11-18T09:52:42;101937.94;;;6.30;100.00
73516;BME280;61763;51.416;5.442;2023-11-18T09:55:25;101940.59;;;6.30;100.00
73516;BME280;61763;51.416;5.442;2023-11-18T09:57:55;101942.31;;;6.36;100.00
73516;BME280;61763;51.416;5.442;2023-11-18T10:00:23;101942.25;;;6.40;100.00
73516;BME280;61763;51.416;5.442;2023-11-18T10:02:54;101931.38;;;6.51;100.00
73516;BME280;61763;51.416;5.442;2023-11-18T10:05:23;101917.94;;;6.53;100.00
73516;BME280;61763;51.416;5.442;2023-11-18T10:07:52;101923.97;;;6.64;100.00
73516;BME280;61763;51.416;5.442;2023-11-18T10:10:19;101923.97;;;6.65;100.00
73516;BME280;61763;51.416;5.442;2023-11-18T10:12:50;101906.81;;;6.74;100.00
73516;BME280;61763;51.416;5.442;2023-11-18T10:15:23;101895.06;;;6.81;100.00
73516;BME280;61763;51.416;5.442;2023-11-18T10:17:51;101894.03;;;6.89;100.00
73516;BME280;61763;51.416;5.442;2023-11-18T10:23:08;101903.00;;;6.89;100.00
73516;BME280;61763;51.416;5.442;2023-11-18T10:25:56;101901.22;;;6.88;100.00
73516;BME280;61763;51.416;5.442;2023-11-18T10:28:27;101893.94;;;6.93;100.00
73516;BME280;61763;51.416;5.442;2023-11-18T10:30:56;101867.97;;;6.97;100.00
73516;BME280;61763;51.416;5.442;2023-11-18T10:33:36;101867.00;;;7.01;100.00
73516;BME280;61763;51.416;5.442;2023-11-18T10:36:03;101858.75;;;7.10;100.00
73516;BME280;61763;51.416;5.442;2023-11-18T10:38:38;101863.19;;;7.13;100.00
73516;BME280;61763;51.416;5.442;2023-11-18T10:41:09;101857.69;;;7.19;100.00
73516;BME280;61763;51.416;5.442;2023-11-18T10:43:35;101855.00;;;7.19;100.00
73516;BME280;61763;51.416;5.442;2023-11-18T10:46:12;101863.75;;;7.30;100.00
73516;BME280;61763;51.416;5.442;2023-11-18T10:48:42;101863.69;;;7.32;100.00
73516;BME280;61763;51.416;5.442;2023-11-18T10:51:09;101852.94;;;7.33;100.00
73516;BME280;61763;51.416;5.442;2023-11-18T10:53:36;101835.84;;;7.36;100.00
73516;BME280;61763;51.416;5.442;2023-11-18T10:56:05;101836.69;;;7.40;100.00
73516;BME280;61763;51.416;5.442;2023-11-18T10:58:38;101833.78;;;7.49;100.00
73516;BME280;61763;51.416;5.442;2023-11-18T11:01:06;101833.84;;;7.46;100.00
73516;BME280;61763;51.416;5.442;2023-11-18T11:03:52;101839.09;;;7.52;100.00
73516;BME280;61763;51.416;5.442;2023-11-18T11:06:23;101842.91;;;7.42;100.00
73516;BME280;61763;51.416;5.442;2023-11-18T11:08:52;101835.66;;;7.45;100.00
73516;BME280;61763;51.416;5.442;2023-11-18T11:11:20;101832.88;;;7.50;100.00
73516;BME280;61763;51.416;5.442;2023-11-18T11:14:00;101832.16;;;7.42;100.00
73516;BME280;61763;51.416;5.442;2023-11-18T11:16:38;101813.09;;;7.54;100.00
73516;BME280;61763;51.416;5.442;2023-11-18T11:19:14;101808.53;;;7.58;100.00
73516;BME280;61763;51.416;5.442;2023-11-18T11:21:50;101809.41;;;7.58;100.00
73516;BME280;61763;51.416;5.442;2023-11-18T11:27:41;101791.50;;;7.59;100.00
73516;BME280;61763;51.416;5.442;2023-11-18T11:30:22;101771.72;;;7.63;100.00
73516;BME280;61763;51.416;5.442;2023-11-18T11:33:02;101756.44;;;7.65;100.00
73516;BME280;61763;51.416;5.442;2023-11-18T11:35:36;101735.97;;;7.59;100.00
73516;BME280;61763;51.416;5.442;2023-11-18T11:38:05;101740.31;;;7.65;100.00
73516;BME280;61763;51.416;5.442;2023-11-18T11:40:38;101729.56;;;7.65;100.00
73516;BME280;61763;51.416;5.442;2023-11-18T11:43:09;101723.34;;;7.63;100.00
73516;BME280;61763;51.416;5.442;2023-11-18T11:45:36;101704.47;;;7.66;100.00
73516;BME280;61763;51.416;5.442;2023-11-18T11:48:05;101695.59;;;7.62;100.00
73516;BME280;61763;51.416;5.442;2023-11-18T11:53:22;101687.44;;;7.65;100.00
73516;BME280;61763;51.416;5.442;2023-11-18T11:55:53;101676.81;;;7.61;100.00
73516;BME280;61763;51.416;5.442;2023-11-18T11:58:29;101668.75;;;7.61;100.00
73516;BME280;61763;51.416;5.442;2023-11-18T12:01:00;101667.03;;;7.60;100.00
73516;BME280;61763;51.416;5.442;2023-11-18T12:03:26;101655.38;;;7.59;100.00
73516;BME280;61763;51.416;5.442;2023-11-18T12:05:55;101647.34;;;7.58;100.00
73516;BME280;61763;51.416;5.442;2023-11-18T12:08:22;101630.53;;;7.51;100.00
73516;BME280;61763;51.416;5.442;2023-11-18T12:10:53;101616.19;;;7.50;100.00
73516;BME280;61763;51.416;5.442;2023-11-18T12:13:19;101609.91;;;7.51;100.00
73516;BME280;61763;51.416;5.442;2023-11-18T12:15:52;101593.63;;;7.58;100.00
73516;BME280;61763;51.416;5.442;2023-11-18T12:18:32;101598.97;;;7.59;100.00
73516;BME280;61763;51.416;5.442;2023-11-18T12:20:59;101581.06;;;7.58;100.00
73516;BME280;61763;51.416;5.442;2023-11-18T12:23:28;101568.75;;;7.51;100.00
73516;BME280;61763;51.416;5.442;2023-11-18T12:25:55;101573.25;;;7.49;100.00
73516;BME280;61763;51.416;5.442;2023-11-18T12:28:31;101572.34;;;7.50;100.00
73516;BME280;61763;51.416;5.442;2023-11-18T12:31:04;101571.34;;;7.54;100.00
73516;BME280;61763;51.416;5.442;2023-11-18T12:41:38;101560.75;;;7.48;100.00
73516;BME280;61763;51.416;5.442;2023-11-18T12:46:54;101527.59;;;7.49;100.00
73516;BME280;61763;51.416;5.442;2023-11-18T12:49:24;101513.25;;;7.50;100.00
73516;BME280;61763;51.416;5.442;2023-11-18T12:51:53;101505.16;;;7.51;100.00
73516;BME280;61763;51.416;5.442;2023-11-18T12:54:20;101490.91;;;7.48;100.00
73516;BME280;61763;51.416;5.442;2023-11-18T12:56:47;101481.09;;;7.47;100.00
73516;BME280;61763;51.416;5.442;2023-11-18T12:59:18;101465.91;;;7.46;100.00
73516;BME280;61763;51.416;5.442;2023-11-18T13:01:49;101468.47;;;7.50;100.00
73516;BME280;61763;51.416;5.442;2023-11-18T13:04:25;101469.38;;;7.51;100.00
73516;BME280;61763;51.416;5.442;2023-11-18T13:06:53;101464.06;;;7.48;100.00
73516;BME280;61763;51.416;5.442;2023-11-18T13:09:22;101463.00;;;7.53;100.00
73516;BME280;61763;51.416;5.442;2023-11-18T13:11:55;101457.63;;;7.53;100.00
73516;BME280;61763;51.416;5.442;2023-11-18T13:14:25;101446.06;;;7.51;100.00
73516;BME280;61763;51.416;5.442;2023-11-18T13:16:55;101439.72;;;7.54;100.00
73516;BME280;61763;51.416;5.442;2023-11-18T13:19:27;101426.34;;;7.52;100.00